createdAt,value
2022-10-18T00:01:15.253Z,64.84
2022-10-18T00:03:44.622Z,64.80
2022-10-18T00:06:12.821Z,64.96
2022-10-18T00:08:41.051Z,64.84
2022-10-18T00:11:09.323Z,64.95
2022-10-18T00:13:38.146Z,65.08
2022-10-18T00:16:12.845Z,64.99
2022-10-18T00:18:41.584Z,65.09
2022-10-18T00:21:19.176Z,65.35
2022-10-18T00:23:48.727Z,65.32
2022-10-18T00:26:20.783Z,65.22
2022-10-18T00:28:55.374Z,65.16
2022-10-18T00:31:26.932Z,65.39
2022-10-18T00:34:01.180Z,65.39
2022-10-18T00:36:42.274Z,65.44
2022-10-18T00:39:16.451Z,65.35
2022-10-18T00:41:45.458Z,65.54
2022-10-18T00:44:13.403Z,65.61
2022-10-18T00:46:44.051Z,65.67
2022-10-18T00:49:25.892Z,65.66
2022-10-18T00:51:59.350Z,65.58
2022-10-18T00:54:30.185Z,65.58
2022-10-18T00:56:58.995Z,65.60
2022-10-18T00:59:27.168Z,65.68
2022-10-18T01:01:55.329Z,65.62
2022-10-18T01:04:23.901Z,65.79
2022-10-18T01:07:01.953Z,65.20
2022-10-18T01:09:36.179Z,65.32
2022-10-18T01:12:16.230Z,65.13
2022-10-18T01:14:52.631Z,64.88
2022-10-18T01:17:30.109Z,64.91
2022-10-18T01:20:37.531Z,64.88
2022-10-18T01:23:18.464Z,64.87
2022-10-18T01:26:03.671Z,64.77
2022-10-18T01:28:47.183Z,64.59
2022-10-18T01:31:31.952Z,64.11
2022-10-18T01:34:09.710Z,64.06
2022-10-18T01:36:42.596Z,64.07
2022-10-18T01:39:15.952Z,63.95
2022-10-18T01:41:45.696Z,63.87
2022-10-18T01:44:21.216Z,63.89
2022-10-18T01:46:51.325Z,63.79
2022-10-18T01:49:19.129Z,63.70
2022-10-18T01:51:47.065Z,63.59
2022-10-18T01:54:21.923Z,63.64
2022-10-18T01:57:02.842Z,63.64
2022-10-18T01:59:52.858Z,63.77
2022-10-18T02:02:45.612Z,63.75
2022-10-18T02:05:23.155Z,63.67
2022-10-18T02:08:19.045Z,63.65
2022-10-18T02:10:56.197Z,63.76
2022-10-18T02:13:27.537Z,63.72
2022-10-18T02:16:01.332Z,63.73
2022-10-18T02:18:39.330Z,63.89
2022-10-18T02:21:10.950Z,63.76
2022-10-18T02:23:39.869Z,63.85
2022-10-18T02:26:08.185Z,63.91
2022-10-18T02:28:36.127Z,63.82
2022-10-18T02:31:16.489Z,63.87
2022-10-18T02:34:03.112Z,63.87
2022-10-18T02:36:40.922Z,63.73
2022-10-18T02:39:14.936Z,63.87
2022-10-18T02:41:43.567Z,63.98
2022-10-18T02:44:11.669Z,63.77
2022-10-18T02:46:40.505Z,64.15
2022-10-18T02:49:08.529Z,63.99
2022-10-18T02:51:36.511Z,64.23
2022-10-18T02:54:04.884Z,64.17
2022-10-18T02:56:32.830Z,63.97
2022-10-18T02:59:01.845Z,64.08
2022-10-18T03:01:29.706Z,64.06
2022-10-18T03:03:58.070Z,63.98
2022-10-18T03:06:26.263Z,64.08
2022-10-18T03:08:54.227Z,64.06
2022-10-18T03:11:22.901Z,64.05
2022-10-18T03:13:51.211Z,64.00
2022-10-18T03:16:19.720Z,63.97
2022-10-18T03:18:47.698Z,64.07
2022-10-18T03:21:15.746Z,64.06
2022-10-18T03:23:43.840Z,63.83
2022-10-18T03:26:11.769Z,63.86
2022-10-18T03:28:39.909Z,63.99
2022-10-18T03:31:07.701Z,64.02
2022-10-18T03:33:35.773Z,64.12
2022-10-18T03:36:04.016Z,64.02
2022-10-18T03:38:32.335Z,63.98
2022-10-18T03:41:00.453Z,63.95
2022-10-18T03:43:28.915Z,63.97
2022-10-18T03:45:56.820Z,64.10
2022-10-18T03:48:25.112Z,64.13
2022-10-18T03:50:53.223Z,64.10
2022-10-18T03:53:21.010Z,64.24
2022-10-18T03:55:53.748Z,64.31
2022-10-18T03:58:23.370Z,64.42
2022-10-18T04:00:55.332Z,64.35
2022-10-18T04:03:23.669Z,64.41
2022-10-18T04:05:51.840Z,64.43
2022-10-18T04:08:20.288Z,64.68
2022-10-18T04:10:48.843Z,64.74
2022-10-18T04:13:16.657Z,64.75
2022-10-18T04:15:44.942Z,64.77
2022-10-18T04:18:12.878Z,64.87
2022-10-18T04:20:40.754Z,64.88
2022-10-18T04:23:09.224Z,64.81
2022-10-18T04:25:37.299Z,64.96
2022-10-18T04:28:05.230Z,64.98
2022-10-18T04:30:33.373Z,65.03
2022-10-18T04:33:01.448Z,65.07
2022-10-18T04:35:29.386Z,65.04
2022-10-18T04:37:57.910Z,65.12
2022-10-18T04:40:25.835Z,65.30
2022-10-18T04:42:53.797Z,65.24
2022-10-18T04:45:22.083Z,65.33
2022-10-18T04:47:50.037Z,65.32
2022-10-18T04:50:17.983Z,65.52
2022-10-18T04:52:46.099Z,65.38
2022-10-18T04:55:14.249Z,65.47
2022-10-18T04:57:42.120Z,65.54
2022-10-18T05:00:10.742Z,65.53
2022-10-18T05:02:38.701Z,65.62
2022-10-18T05:05:09.245Z,65.71
2022-10-18T05:07:40.085Z,65.85
2022-10-18T05:10:09.189Z,65.68
2022-10-18T05:12:37.764Z,65.86
2022-10-18T05:15:06.714Z,65.89
2022-10-18T05:17:34.581Z,65.86
2022-10-18T05:20:03.746Z,65.92
2022-10-18T05:22:32.368Z,65.95
2022-10-18T05:25:00.561Z,66.08
2022-10-18T05:27:29.007Z,66.09
2022-10-18T05:29:58.945Z,65.97
2022-10-18T05:32:29.474Z,66.13
2022-10-18T05:34:57.716Z,66.09
2022-10-18T05:37:28.261Z,66.07
2022-10-18T05:39:56.432Z,66.08
2022-10-18T05:42:24.514Z,66.30
2022-10-18T05:44:52.786Z,66.35
2022-10-18T05:47:20.890Z,66.37
2022-10-18T05:49:48.920Z,66.46
2022-10-18T05:52:17.816Z,66.53
2022-10-18T05:54:45.632Z,66.52
2022-10-18T05:57:13.545Z,66.43
2022-10-18T05:59:41.581Z,66.64
2022-10-18T06:02:11.782Z,66.53
2022-10-18T06:04:39.703Z,66.58
2022-10-18T06:07:11.504Z,66.63
2022-10-18T06:09:39.394Z,66.73
2022-10-18T06:12:09.156Z,66.59
2022-10-18T06:14:37.866Z,66.81
2022-10-18T06:17:05.844Z,66.75
2022-10-18T06:19:33.901Z,66.78
2022-10-18T06:22:02.112Z,66.73
2022-10-18T06:24:29.922Z,66.69
2022-10-18T06:26:58.013Z,66.73
2022-10-18T06:29:26.113Z,66.53
2022-10-18T06:31:54.062Z,66.48
2022-10-18T06:34:21.962Z,66.73
2022-10-18T06:36:50.216Z,66.60
2022-10-18T06:39:19.258Z,66.54
2022-10-18T06:41:47.298Z,66.37
2022-10-18T06:44:21.978Z,66.48
2022-10-18T06:46:49.894Z,66.59
2022-10-18T06:49:19.201Z,66.46
2022-10-18T06:51:47.652Z,66.55
2022-10-18T06:54:18.458Z,66.62
2022-10-18T06:56:46.932Z,66.49
2022-10-18T06:59:15.296Z,66.41
2022-10-18T07:01:44.354Z,66.30
2022-10-18T07:04:12.377Z,66.29
2022-10-18T07:06:41.102Z,66.17
2022-10-18T07:09:09.122Z,66.05
2022-10-18T07:11:37.427Z,66.00
2022-10-18T07:14:05.812Z,65.94
2022-10-18T07:16:34.618Z,65.86
2022-10-18T07:19:02.669Z,65.83
2022-10-18T07:21:31.859Z,65.69
2022-10-18T07:24:00.029Z,65.23
2022-10-18T07:26:31.476Z,65.21
2022-10-18T07:29:09.738Z,65.30
2022-10-18T07:31:39.221Z,65.21
2022-10-18T07:34:08.743Z,65.06
2022-10-18T07:36:36.902Z,65.17
2022-10-18T07:39:05.636Z,65.24
2022-10-18T07:41:34.632Z,65.30
2022-10-18T07:44:03.941Z,64.78
2022-10-18T07:46:32.238Z,64.84
2022-10-18T07:49:00.205Z,64.73
2022-10-18T07:51:28.438Z,64.33
2022-10-18T07:53:56.349Z,64.49
2022-10-18T07:56:24.446Z,64.72
2022-10-18T07:58:54.197Z,64.39
2022-10-18T08:01:24.157Z,64.20
2022-10-18T08:03:54.163Z,64.36
2022-10-18T08:06:23.943Z,64.09
2022-10-18T08:08:52.574Z,63.95
2022-10-18T08:11:24.107Z,63.80
2022-10-18T08:13:53.878Z,63.49
2022-10-18T08:16:27.179Z,63.43
2022-10-18T08:18:57.411Z,63.70
2022-10-18T08:21:26.336Z,63.74
2022-10-18T08:23:54.358Z,63.74
2022-10-18T08:26:23.963Z,63.87
2022-10-18T08:29:03.568Z,63.97
2022-10-18T08:31:38.259Z,64.01
2022-10-18T08:34:06.447Z,63.85
2022-10-18T08:36:34.319Z,63.86
2022-10-18T08:39:03.420Z,63.68
2022-10-18T08:41:37.667Z,63.90
2022-10-18T08:44:07.873Z,63.46
2022-10-18T08:46:38.997Z,63.55
2022-10-18T08:49:11.695Z,63.41
2022-10-18T08:51:45.447Z,63.19
2022-10-18T08:54:26.122Z,63.12
2022-10-18T08:57:04.494Z,62.66
2022-10-18T08:59:39.513Z,62.62
2022-10-18T09:02:10.563Z,62.85
2022-10-18T09:05:03.337Z,63.20
2022-10-18T09:08:09.783Z,63.01
2022-10-18T09:13:54.230Z,63.03
2022-10-18T09:16:29.823Z,62.62
2022-10-18T09:19:34.869Z,62.87
2022-10-18T09:22:14.218Z,62.60
2022-10-18T09:25:03.173Z,62.62
2022-10-18T09:27:45.828Z,62.65
2022-10-18T09:30:26.699Z,62.91
2022-10-18T09:33:18.117Z,62.84
2022-10-18T09:35:51.047Z,62.96
2022-10-18T09:41:02.530Z,63.05
2022-10-18T09:43:43.595Z,63.02
2022-10-18T09:46:13.095Z,62.79
2022-10-18T09:48:50.150Z,62.97
2022-10-18T09:51:22.552Z,63.09
2022-10-18T09:53:59.804Z,62.93
2022-10-18T09:56:40.992Z,62.96
2022-10-18T09:59:30.151Z,63.10
2022-10-18T10:01:58.385Z,62.97
2022-10-18T10:04:26.481Z,63.28
2022-10-18T10:06:56.890Z,63.00
2022-10-18T10:09:29.845Z,63.07
2022-10-18T10:11:59.098Z,63.22
2022-10-18T10:14:30.599Z,63.43
2022-10-18T10:17:05.839Z,63.14
2022-10-18T10:19:55.293Z,63.33
2022-10-18T10:22:53.581Z,62.65
2022-10-18T10:25:34.865Z,62.62
2022-10-18T10:28:16.047Z,62.77
2022-10-18T10:30:44.583Z,62.66
2022-10-18T10:33:33.228Z,63.27
2022-10-18T10:36:04.313Z,63.17
2022-10-18T10:38:32.869Z,63.01
2022-10-18T10:41:01.091Z,62.95
2022-10-18T10:43:37.498Z,62.93
2022-10-18T10:46:19.423Z,63.04
2022-10-18T10:48:50.479Z,62.54
2022-10-18T10:51:30.890Z,62.79
2022-10-18T10:54:01.246Z,62.95
2022-10-18T10:56:31.343Z,62.89
2022-10-18T10:59:18.279Z,62.70
2022-10-18T11:01:51.676Z,62.95
2022-10-18T11:04:38.734Z,62.76
2022-10-18T11:07:09.678Z,62.90
2022-10-18T11:09:59.662Z,62.96
2022-10-18T11:12:34.971Z,62.90
2022-10-18T11:15:12.795Z,62.94
2022-10-18T11:18:02.598Z,63.04
2022-10-18T11:21:11.842Z,62.70
2022-10-18T11:23:42.426Z,62.74
2022-10-18T11:26:21.463Z,62.45
2022-10-18T11:29:36.311Z,62.58
2022-10-18T11:32:35.470Z,62.88
2022-10-18T11:35:24.533Z,62.71
2022-10-18T11:38:05.515Z,62.70
2022-10-18T11:40:59.790Z,62.83
2022-10-18T11:43:57.226Z,63.05
2022-10-18T11:46:31.203Z,62.86
2022-10-18T11:49:05.329Z,62.99
2022-10-18T11:52:07.272Z,62.83
2022-10-18T11:54:55.060Z,62.78
2022-10-18T11:57:36.025Z,62.73
2022-10-18T12:00:14.457Z,62.81
2022-10-18T12:03:20.364Z,62.73
2022-10-18T12:05:50.947Z,62.72
2022-10-18T12:08:29.772Z,62.36
2022-10-18T12:11:05.611Z,62.46
2022-10-18T12:13:45.018Z,62.27
2022-10-18T12:16:14.192Z,62.34
2022-10-18T12:18:56.546Z,62.53
2022-10-18T12:21:27.389Z,62.48
2022-10-18T12:24:16.235Z,62.29
2022-10-18T12:26:48.737Z,62.35
2022-10-18T12:29:35.301Z,62.78
2022-10-18T12:32:11.513Z,62.80
2022-10-18T12:34:51.326Z,62.57
2022-10-18T12:37:57.993Z,62.43
2022-10-18T12:40:38.929Z,62.52
2022-10-18T12:43:21.688Z,62.35
2022-10-18T12:46:01.761Z,62.66
2022-10-18T12:48:32.885Z,62.96
2022-10-18T12:51:18.800Z,62.59
2022-10-18T12:54:10.075Z,62.69
2022-10-18T12:56:42.045Z,62.73
2022-10-18T12:59:16.099Z,62.87
2022-10-18T13:01:50.905Z,62.97
2022-10-18T13:04:28.921Z,62.97
2022-10-18T13:07:05.625Z,62.77
2022-10-18T13:09:39.631Z,62.93
2022-10-18T13:12:10.671Z,63.01
2022-10-18T13:15:20.558Z,62.90
2022-10-18T13:18:05.392Z,63.07
2022-10-18T13:21:13.835Z,63.23
2022-10-18T13:24:00.758Z,63.19
2022-10-18T13:26:59.298Z,63.23
2022-10-18T13:29:46.169Z,63.42
2022-10-18T13:32:48.208Z,63.66
2022-10-18T13:35:55.163Z,63.47
2022-10-18T13:38:39.585Z,63.84
2022-10-18T13:43:52.810Z,63.98
2022-10-18T13:46:25.292Z,63.99
2022-10-18T13:48:55.642Z,63.96
2022-10-18T13:51:59.964Z,64.02
2022-10-18T13:55:19.403Z,64.38
2022-10-18T13:57:50.360Z,64.29
2022-10-18T14:00:49.086Z,64.26
2022-10-18T14:03:56.115Z,64.25
2022-10-18T14:06:40.505Z,64.75
2022-10-18T14:09:45.299Z,65.12
2022-10-18T14:12:31.196Z,65.11
2022-10-18T14:15:10.320Z,65.62
2022-10-18T14:18:19.205Z,65.75
2022-10-18T14:21:12.865Z,65.66
2022-10-18T14:23:47.734Z,65.83
2022-10-18T14:26:19.205Z,65.86
2022-10-18T14:29:05.894Z,65.74
2022-10-18T14:31:52.302Z,65.95
2022-10-18T14:34:21.417Z,66.06
2022-10-18T14:36:50.444Z,66.00
2022-10-18T14:39:22.707Z,66.02
2022-10-18T14:41:53.409Z,66.07
2022-10-18T14:44:26.538Z,66.32
2022-10-18T14:47:15.564Z,66.38
2022-10-18T14:49:45.324Z,66.57
2022-10-18T14:52:16.762Z,66.61
2022-10-18T14:54:45.590Z,66.55
2022-10-18T14:57:24.696Z,66.86
2022-10-18T14:59:58.201Z,66.88
2022-10-18T15:02:28.303Z,67.14
2022-10-18T15:05:07.015Z,67.12
2022-10-18T15:07:35.877Z,67.43
2022-10-18T15:10:05.798Z,67.59
2022-10-18T15:13:04.858Z,67.62
2022-10-18T15:15:34.987Z,67.91
2022-10-18T15:18:05.512Z,67.98
2022-10-18T15:20:42.495Z,68.09
2022-10-18T15:23:31.547Z,68.46
2022-10-18T15:26:09.932Z,68.53
2022-10-18T15:28:53.926Z,68.97
2022-10-18T15:31:26.426Z,69.15
2022-10-18T15:34:07.679Z,69.33
2022-10-18T15:36:36.358Z,69.94
2022-10-18T15:39:15.480Z,70.27
2022-10-18T15:41:49.074Z,70.73
2022-10-18T15:44:20.517Z,70.71
2022-10-18T15:46:57.080Z,70.78
2022-10-18T15:49:25.354Z,70.95
2022-10-18T15:52:22.047Z,71.60
2022-10-18T15:54:51.558Z,72.31
2022-10-18T15:57:21.091Z,73.05
2022-10-18T16:00:05.885Z,73.61
2022-10-18T16:02:39.898Z,73.97
2022-10-18T16:05:21.758Z,74.41
2022-10-18T16:07:53.112Z,74.70
2022-10-18T16:10:21.024Z,74.87
2022-10-18T16:12:49.082Z,75.09
2022-10-18T16:15:17.390Z,75.13
2022-10-18T16:17:45.913Z,75.36
2022-10-18T16:20:23.005Z,75.54
2022-10-18T16:22:51.032Z,75.68
2022-10-18T16:25:18.946Z,75.76
2022-10-18T16:27:46.912Z,76.13
2022-10-18T16:30:18.843Z,76.29
2022-10-18T16:32:49.163Z,76.54
2022-10-18T16:35:17.300Z,76.75
2022-10-18T16:37:45.144Z,77.07
2022-10-18T16:40:24.238Z,77.14
2022-10-18T16:42:52.521Z,77.51
2022-10-18T16:45:23.652Z,77.70
2022-10-18T16:47:53.272Z,77.93
2022-10-18T16:50:22.814Z,78.13
2022-10-18T16:52:50.618Z,78.29
2022-10-18T16:55:25.102Z,78.48
2022-10-18T16:57:53.086Z,78.79
2022-10-18T17:00:23.556Z,78.84
2022-10-18T17:02:51.726Z,79.03
2022-10-18T17:05:20.255Z,79.16
2022-10-18T17:07:48.306Z,79.31
2022-10-18T17:10:20.753Z,79.48
2022-10-18T17:12:49.036Z,79.42
2022-10-18T17:15:17.306Z,79.63
2022-10-18T17:17:46.479Z,80.05
2022-10-18T17:20:24.277Z,80.16
2022-10-18T17:22:53.876Z,80.43
2022-10-18T17:25:22.154Z,80.17
2022-10-18T17:27:50.081Z,79.81
2022-10-18T17:30:18.435Z,79.53
2022-10-18T17:32:46.587Z,79.39
2022-10-18T17:35:14.671Z,79.32
2022-10-18T17:37:45.403Z,79.44
2022-10-18T17:40:14.418Z,79.43
2022-10-18T17:42:42.714Z,79.44
2022-10-18T17:45:11.417Z,79.50
2022-10-18T17:47:40.104Z,79.68
2022-10-18T17:50:08.936Z,79.75
2022-10-18T17:55:15.689Z,80.03
2022-10-18T17:57:44.509Z,80.09
2022-10-18T18:00:13.496Z,80.13
2022-10-18T18:02:42.733Z,80.30
2022-10-18T18:05:13.304Z,80.36
2022-10-18T18:07:41.227Z,80.53
2022-10-18T18:10:09.949Z,80.53
2022-10-18T18:12:38.420Z,80.80
2022-10-18T18:15:07.467Z,80.62
2022-10-18T18:17:56.083Z,80.75
2022-10-18T18:20:25.290Z,80.82
2022-10-18T18:22:53.641Z,80.76
2022-10-18T18:25:21.875Z,81.01
2022-10-18T18:27:50.291Z,80.79
2022-10-18T18:30:18.632Z,80.90
2022-10-18T18:32:46.632Z,81.07
2022-10-18T18:35:18.882Z,81.01
2022-10-18T18:37:50.513Z,80.81
2022-10-18T18:40:18.519Z,81.08
2022-10-18T18:43:01.423Z,81.06
2022-10-18T18:45:34.930Z,81.08
2022-10-18T18:48:03.070Z,81.30
2022-10-18T18:50:31.964Z,81.09
2022-10-18T18:53:00.021Z,81.23
2022-10-18T18:55:28.089Z,81.22
2022-10-18T18:57:56.692Z,81.41
2022-10-18T19:00:25.159Z,81.47
2022-10-18T19:02:54.683Z,81.36
2022-10-18T19:07:52.409Z,81.66
2022-10-18T19:10:21.724Z,81.68
2022-10-18T19:12:49.730Z,81.62
2022-10-18T19:15:18.778Z,81.80
2022-10-18T19:17:50.428Z,81.81
2022-10-18T19:20:18.675Z,81.84
2022-10-18T19:22:49.381Z,82.04
2022-10-18T19:25:24.696Z,81.94
2022-10-18T19:27:55.063Z,81.91
2022-10-18T19:30:24.098Z,82.06
2022-10-18T19:32:59.832Z,82.22
2022-10-18T19:35:32.111Z,82.17
2022-10-18T19:38:00.207Z,82.16
2022-10-18T19:40:30.872Z,82.30
2022-10-18T19:42:58.964Z,82.22
2022-10-18T19:45:27.005Z,82.37
2022-10-18T19:47:54.941Z,82.46
2022-10-18T19:50:23.078Z,82.50
2022-10-18T19:52:51.144Z,82.45
2022-10-18T19:55:19.147Z,82.53
2022-10-18T19:57:47.334Z,82.54
2022-10-18T20:00:19.316Z,82.57
2022-10-18T20:02:47.797Z,82.52
2022-10-18T20:05:16.015Z,82.74
2022-10-18T20:07:45.678Z,82.68
2022-10-18T20:10:13.893Z,82.76
2022-10-18T20:12:41.991Z,82.73
2022-10-18T20:15:10.511Z,82.70
2022-10-18T20:17:38.882Z,82.75
2022-10-18T20:20:08.212Z,82.95
2022-10-18T20:22:36.190Z,83.08
2022-10-18T20:25:04.626Z,83.00
2022-10-18T20:27:33.106Z,82.98
2022-10-18T20:30:01.515Z,83.18
2022-10-18T20:32:29.475Z,83.20
2022-10-18T20:34:58.295Z,83.33
2022-10-18T20:37:26.399Z,83.26
2022-10-18T20:39:54.654Z,83.22
2022-10-18T20:42:22.761Z,83.44
2022-10-18T20:44:51.256Z,83.40
2022-10-18T20:47:19.558Z,83.56
2022-10-18T20:49:47.611Z,83.68
2022-10-18T20:52:15.951Z,83.92
2022-10-18T20:54:45.420Z,83.89
2022-10-18T20:57:14.510Z,84.03
2022-10-18T20:59:42.692Z,84.15
2022-10-18T21:02:19.914Z,84.17
2022-10-18T21:04:51.037Z,84.31
2022-10-18T21:07:19.501Z,84.59
2022-10-18T21:09:47.675Z,84.65
2022-10-18T21:12:15.902Z,84.69
2022-10-18T21:14:43.806Z,84.71
2022-10-18T21:17:11.895Z,84.56
2022-10-18T21:19:40.035Z,84.57
2022-10-18T21:22:08.013Z,84.66
2022-10-18T21:24:36.237Z,84.82
2022-10-18T21:27:04.362Z,84.86
2022-10-18T21:29:32.534Z,84.90
2022-10-18T21:32:01.246Z,85.01
2022-10-18T21:34:29.356Z,84.96
2022-10-18T21:36:57.498Z,84.99
2022-10-18T21:39:25.761Z,84.92
2022-10-18T21:41:54.318Z,85.00
2022-10-18T21:44:22.214Z,84.97
2022-10-18T21:46:50.974Z,84.97
2022-10-18T21:49:19.327Z,84.95
2022-10-18T21:51:47.185Z,84.80
2022-10-18T21:54:17.241Z,84.89
2022-10-18T21:56:45.479Z,84.83
2022-10-18T21:59:13.861Z,84.90
2022-10-18T22:01:44.119Z,85.08
2022-10-18T22:04:21.908Z,85.14
2022-10-18T22:06:50.654Z,85.22
2022-10-18T22:09:19.499Z,85.26
2022-10-18T22:11:52.131Z,85.11
2022-10-18T22:14:21.209Z,85.32
2022-10-18T22:16:50.019Z,85.40
2022-10-18T22:19:18.459Z,85.33
2022-10-18T22:21:46.496Z,85.45
2022-10-18T22:24:15.083Z,85.20
2022-10-18T22:26:45.972Z,85.38
2022-10-18T22:29:20.036Z,85.36
2022-10-18T22:31:50.103Z,85.55
2022-10-18T22:34:24.369Z,85.35
2022-10-18T22:36:52.427Z,85.43
2022-10-18T22:39:20.857Z,85.26
2022-10-18T22:41:52.215Z,85.34
2022-10-18T22:44:20.242Z,85.20
2022-10-18T22:46:48.302Z,85.30
2022-10-18T22:49:16.314Z,85.06
2022-10-18T22:51:44.697Z,84.95
2022-10-18T22:54:12.822Z,84.93
2022-10-18T22:56:40.680Z,84.77
2022-10-18T22:59:08.699Z,84.69
2022-10-18T23:01:37.661Z,84.56
2022-10-18T23:04:05.528Z,84.53
2022-10-18T23:06:35.972Z,84.42
2022-10-18T23:09:07.735Z,84.31
2022-10-18T23:11:36.964Z,84.33
2022-10-18T23:14:06.675Z,84.15
2022-10-18T23:16:35.149Z,84.06
2022-10-18T23:19:03.429Z,84.24
2022-10-18T23:21:32.151Z,84.24
2022-10-18T23:23:59.974Z,84.36
2022-10-18T23:26:28.464Z,84.34
2022-10-18T23:28:56.764Z,84.37
2022-10-18T23:31:30.849Z,84.44
2022-10-18T23:34:01.758Z,84.46
2022-10-18T23:36:31.100Z,84.61
2022-10-18T23:38:59.586Z,84.52
2022-10-18T23:41:27.918Z,84.18
2022-10-18T23:43:56.331Z,84.09
2022-10-18T23:46:24.319Z,83.87
2022-10-18T23:48:52.420Z,83.63
2022-10-18T23:51:20.423Z,83.65
2022-10-18T23:53:48.709Z,83.57
2022-10-18T23:56:16.764Z,83.41
2022-10-18T23:58:45.867Z,83.40
